createdAt,value
2022-11-01T00:04:45.060Z,100.00
2022-11-01T00:09:50.084Z,100.00
2022-11-01T00:14:53.636Z,100.00
2022-11-01T00:19:57.029Z,100.00
2022-11-01T00:25:01.728Z,100.00
2022-11-01T00:30:06.232Z,100.00
2022-11-01T00:35:09.964Z,100.00
2022-11-01T00:40:15.044Z,100.00
2022-11-01T00:45:18.962Z,100.00
2022-11-01T00:50:22.605Z,100.00
2022-11-01T00:55:27.527Z,100.00
2022-11-01T01:00:31.306Z,100.00
2022-11-01T01:05:35.238Z,100.00
2022-11-01T01:10:40.028Z,100.00
2022-11-01T01:15:43.927Z,100.00
2022-11-01T01:20:47.241Z,100.00
2022-11-01T01:25:51.886Z,100.00
2022-11-01T01:30:55.282Z,100.00
2022-11-01T01:36:01.379Z,100.00
2022-11-01T01:41:26.187Z,100.00
2022-11-01T01:46:29.484Z,100.00
2022-11-01T01:51:32.832Z,100.00
2022-11-01T01:56:38.650Z,100.00
2022-11-01T02:01:42.391Z,100.00
2022-11-01T02:06:47.066Z,100.00
2022-11-01T02:11:52.044Z,100.00
2022-11-01T02:17:05.581Z,100.00
2022-11-01T02:22:18.043Z,100.00
2022-11-01T02:27:25.870Z,100.00
2022-11-01T02:32:38.561Z,100.00
2022-11-01T02:37:50.214Z,100.00
2022-11-01T02:43:01.321Z,100.00
2022-11-01T02:48:07.745Z,100.00
2022-11-01T02:53:11.844Z,100.00
2022-11-01T02:58:21.531Z,100.00
2022-11-01T03:03:29.168Z,100.00
2022-11-01T03:08:36.669Z,100.00
2022-11-01T03:13:53.939Z,100.00
2022-11-01T03:19:08.566Z,100.00
2022-11-01T03:24:21.710Z,100.00
2022-11-01T03:29:29.153Z,100.00
2022-11-01T03:34:36.945Z,100.00
2022-11-01T03:39:44.619Z,100.00
2022-11-01T03:44:50.865Z,100.00
2022-11-01T03:50:13.843Z,100.00
2022-11-01T03:55:19.057Z,100.00
2022-11-01T04:00:24.542Z,100.00
2022-11-01T04:05:30.856Z,100.00
2022-11-01T04:10:34.888Z,100.00
2022-11-01T04:15:55.608Z,100.00
2022-11-01T04:21:03.554Z,100.00
2022-11-01T04:26:08.338Z,100.00
2022-11-01T04:31:12.320Z,100.00
2022-11-01T04:36:17.222Z,100.00
2022-11-01T04:41:22.508Z,100.00
2022-11-01T04:46:27.921Z,100.00
2022-11-01T04:51:33.035Z,100.00
2022-11-01T04:56:36.503Z,100.00
2022-11-01T05:01:40.270Z,100.00
2022-11-01T05:06:45.055Z,100.00
2022-11-01T05:11:48.777Z,100.00
2022-11-01T05:16:52.152Z,100.00
2022-11-01T05:21:58.067Z,100.00
2022-11-01T05:27:02.054Z,100.00
2022-11-01T05:32:06.296Z,100.00
2022-11-01T05:37:12.068Z,100.00
2022-11-01T05:42:15.882Z,100.00
2022-11-01T05:47:19.281Z,100.00
2022-11-01T05:52:24.122Z,100.00
2022-11-01T05:57:33.150Z,100.00
2022-11-01T06:02:36.934Z,100.00
2022-11-01T06:07:41.742Z,100.00
2022-11-01T06:12:45.197Z,100.00
2022-11-01T06:17:48.748Z,100.00
2022-11-01T06:22:53.997Z,100.00
2022-11-01T06:27:57.497Z,100.00
2022-11-01T06:33:02.155Z,100.00
2022-11-01T06:38:08.356Z,100.00
2022-11-01T06:43:11.888Z,100.00
2022-11-01T06:48:16.470Z,100.00
2022-11-01T06:53:21.289Z,100.00
2022-11-01T06:58:24.690Z,100.00
2022-11-01T07:03:28.149Z,100.00
2022-11-01T07:08:33.033Z,100.00
2022-11-01T07:13:37.904Z,100.00
2022-11-01T07:18:41.333Z,100.00
2022-11-01T07:23:46.272Z,100.00
2022-11-01T07:28:49.836Z,100.00
2022-11-01T07:33:53.225Z,100.00
2022-11-01T07:38:58.049Z,100.00
2022-11-01T07:44:01.493Z,100.00
2022-11-01T07:49:04.929Z,100.00
2022-11-01T07:54:09.702Z,100.00
2022-11-01T07:59:13.357Z,100.00
2022-11-01T08:04:16.742Z,100.00
2022-11-01T08:09:23.199Z,100.00
2022-11-01T08:14:26.972Z,100.00
2022-11-01T08:19:30.457Z,100.00
2022-11-01T08:24:35.215Z,100.00
2022-11-01T08:29:38.662Z,100.00
2022-11-01T08:34:42.072Z,100.00
2022-11-01T08:39:46.930Z,100.00
2022-11-01T08:44:50.443Z,100.00
2022-11-01T08:49:53.976Z,100.00
2022-11-01T08:54:58.774Z,100.00
2022-11-01T09:00:02.391Z,100.00
2022-11-01T09:05:07.084Z,100.00
2022-11-01T09:10:12.621Z,100.00
2022-11-01T09:15:16.013Z,100.00
2022-11-01T09:20:19.851Z,100.00
2022-11-01T09:25:24.866Z,100.00
2022-11-01T09:30:28.781Z,100.00
2022-11-01T09:35:32.264Z,100.00
2022-11-01T09:40:45.330Z,100.00
2022-11-01T09:45:51.003Z,100.00
2022-11-01T09:50:55.054Z,100.00
2022-11-01T09:56:10.155Z,100.00
2022-11-01T10:01:26.860Z,100.00
2022-11-01T10:06:39.104Z,100.00
2022-11-01T10:12:00.379Z,100.00
2022-11-01T10:17:14.534Z,100.00
2022-11-01T10:22:19.628Z,100.00
2022-11-01T10:27:33.055Z,100.00
2022-11-01T10:32:44.070Z,100.00
2022-11-01T10:38:04.024Z,100.00
2022-11-01T10:43:19.932Z,100.00
2022-11-01T10:48:31.993Z,100.00
2022-11-01T10:53:42.039Z,100.00
2022-11-01T10:58:54.666Z,100.00
2022-11-01T11:04:01.424Z,100.00
2022-11-01T11:09:06.300Z,100.00
2022-11-01T11:14:14.074Z,100.00
2022-11-01T11:19:25.232Z,100.00
2022-11-01T11:24:33.769Z,99.34
2022-11-01T11:29:41.184Z,99.22
2022-11-01T11:34:44.963Z,98.92
2022-11-01T11:40:02.513Z,99.80
2022-11-01T11:45:18.182Z,99.39
2022-11-01T11:50:32.899Z,97.30
2022-11-01T11:55:42.239Z,96.99
2022-11-01T12:00:50.069Z,93.46
2022-11-01T12:06:00.830Z,92.27
2022-11-01T12:11:05.762Z,90.71
2022-11-01T12:16:17.755Z,90.17
2022-11-01T12:21:25.403Z,88.55
2022-11-01T12:26:31.786Z,88.72
2022-11-01T12:31:39.337Z,87.26
2022-11-01T12:36:47.072Z,86.89
2022-11-01T12:41:59.350Z,87.34
2022-11-01T12:47:11.814Z,91.42
2022-11-01T12:52:22.439Z,87.99
2022-11-01T12:57:26.093Z,87.19
2022-11-01T13:02:52.532Z,86.01
2022-11-01T13:08:05.490Z,87.03
2022-11-01T13:13:17.944Z,85.04
2022-11-01T13:18:34.335Z,79.33
2022-11-01T13:23:39.481Z,80.97
2022-11-01T13:28:55.202Z,82.28
2022-11-01T13:34:11.091Z,83.25
2022-11-01T13:39:24.716Z,83.37
2022-11-01T13:44:33.867Z,82.82
2022-11-01T13:50:04.967Z,83.80
2022-11-01T13:55:20.218Z,80.27
2022-11-01T14:00:40.148Z,78.20
2022-11-01T14:05:46.400Z,80.94
2022-11-01T14:10:51.476Z,79.46
2022-11-01T14:16:20.933Z,77.96
2022-11-01T14:21:32.197Z,78.73
2022-11-01T14:26:46.279Z,77.92
2022-11-01T14:31:53.728Z,80.04
2022-11-01T14:37:04.420Z,80.83
2022-11-01T14:42:15.111Z,83.00
2022-11-01T14:47:29.161Z,86.14
2022-11-01T14:52:40.983Z,86.50
2022-11-01T14:57:45.355Z,86.78
2022-11-01T15:02:48.855Z,87.93
2022-11-01T15:07:56.251Z,86.39
2022-11-01T15:13:01.742Z,87.46
2022-11-01T15:18:09.226Z,89.57
2022-11-01T15:23:19.463Z,81.49
2022-11-01T15:28:26.779Z,85.68
2022-11-01T15:33:32.219Z,81.88
2022-11-01T15:38:51.089Z,86.47
2022-11-01T15:43:55.715Z,90.93
2022-11-01T15:49:05.157Z,92.04
2022-11-01T15:54:20.870Z,88.67
2022-11-01T15:59:28.835Z,89.34
2022-11-01T16:04:40.663Z,86.05
2022-11-01T16:09:48.372Z,86.17
2022-11-01T16:14:54.465Z,89.67
2022-11-01T16:19:58.024Z,82.81
2022-11-01T16:25:05.513Z,84.85
2022-11-01T16:30:34.343Z,87.44
2022-11-01T16:35:38.744Z,89.79
2022-11-01T16:40:44.064Z,89.99
2022-11-01T16:45:47.896Z,93.60
2022-11-01T16:50:53.212Z,96.43
2022-11-01T16:56:16.788Z,96.51
2022-11-01T17:01:35.070Z,97.67
2022-11-01T17:06:39.581Z,99.61
2022-11-01T17:11:50.714Z,100.00
2022-11-01T17:16:56.557Z,100.00
2022-11-01T17:22:02.693Z,100.00
2022-11-01T17:27:08.865Z,100.00
2022-11-01T17:32:12.603Z,100.00
2022-11-01T17:37:17.727Z,100.00
2022-11-01T17:42:22.296Z,100.00
2022-11-01T17:47:26.825Z,100.00
2022-11-01T17:52:30.643Z,100.00
2022-11-01T17:57:35.439Z,100.00
2022-11-01T18:02:39.434Z,100.00
2022-11-01T18:07:45.257Z,100.00
2022-11-01T18:13:19.603Z,100.00
2022-11-01T18:18:33.014Z,100.00
2022-11-01T18:23:38.316Z,100.00
2022-11-01T18:28:44.288Z,100.00
2022-11-01T18:33:54.810Z,100.00
2022-11-01T18:39:07.130Z,100.00
2022-11-01T18:44:14.520Z,100.00
2022-11-01T18:49:18.156Z,100.00
2022-11-01T18:54:25.944Z,100.00
2022-11-01T18:59:32.718Z,100.00
2022-11-01T19:04:37.639Z,100.00
2022-11-01T19:09:43.918Z,100.00
2022-11-01T19:14:57.559Z,100.00
2022-11-01T19:20:01.157Z,100.00
2022-11-01T19:25:20.841Z,100.00
2022-11-01T19:30:28.509Z,100.00
2022-11-01T19:35:31.858Z,100.00
2022-11-01T19:40:36.224Z,100.00
2022-11-01T19:45:47.000Z,100.00
2022-11-01T19:50:51.094Z,100.00
2022-11-01T19:55:56.623Z,100.00
2022-11-01T20:01:20.981Z,100.00
2022-11-01T20:06:30.010Z,100.00
2022-11-01T20:11:34.831Z,100.00
2022-11-01T20:16:41.897Z,100.00
2022-11-01T20:21:47.086Z,100.00
2022-11-01T20:26:50.799Z,100.00
2022-11-01T20:31:57.091Z,100.00
2022-11-01T20:37:27.031Z,100.00
2022-11-01T20:42:28.510Z,100.00
2022-11-01T20:47:33.912Z,100.00
2022-11-01T20:52:40.050Z,100.00
2022-11-01T20:57:43.951Z,100.00
2022-11-01T21:02:49.508Z,100.00
2022-11-01T21:07:58.164Z,100.00
2022-11-01T21:13:04.443Z,100.00
2022-11-01T21:18:34.304Z,100.00
2022-11-01T21:23:43.145Z,100.00
2022-11-01T21:28:49.969Z,100.00
2022-11-01T21:33:56.802Z,100.00
2022-11-01T21:39:01.925Z,100.00
2022-11-01T21:44:24.560Z,100.00
2022-11-01T21:49:31.223Z,100.00
2022-11-01T21:54:36.083Z,100.00
2022-11-01T21:59:40.049Z,100.00
2022-11-01T22:04:45.947Z,100.00
2022-11-01T22:09:49.303Z,100.00
2022-11-01T22:14:52.735Z,100.00
2022-11-01T22:19:57.452Z,100.00
2022-11-01T22:25:02.089Z,100.00
2022-11-01T22:30:06.408Z,100.00
2022-11-01T22:35:11.402Z,100.00
2022-11-01T22:40:16.642Z,100.00
2022-11-01T22:45:20.068Z,100.00
2022-11-01T22:50:29.493Z,100.00
2022-11-01T22:55:44.148Z,100.00
2022-11-01T23:00:47.751Z,100.00
2022-11-01T23:05:55.327Z,100.00
2022-11-01T23:10:59.273Z,100.00
2022-11-01T23:16:04.243Z,100.00
2022-11-01T23:21:11.228Z,100.00
2022-11-01T23:26:16.957Z,100.00
2022-11-01T23:31:21.751Z,100.00
2022-11-01T23:36:30.330Z,100.00
2022-11-01T23:41:36.017Z,100.00
2022-11-01T23:46:39.584Z,100.00
2022-11-01T23:51:44.465Z,100.00
2022-11-01T23:56:47.885Z,100.00
